Time;durP1;ratioP1;P1;durP2;ratioP2;P2;SDS_P1;SDS_P2;PMS_P1;PMS_P2;Temp;Humidity;BMP_temperature;BMP_pressure;BME280_temperature;BME280_humidity;BME280_pressure;Samples;Min_cycle;Max_cycle;Signal;HPM_P1;HPM_P2
2021/08/16 00:00:17;;;;;;;13.50;11.07;;;20.50;84.30;;;;;;5034901;28;20022;-81
2021/08/16 00:02:45;;;;;;;;;;;20.50;84.60;;;;;;5035199;28;20017;-80
2021/08/16 00:05:13;;;;;;;16.60;14.05;;;20.50;83.50;;;;;;5034789;28;19915;-81
2021/08/16 00:07:39;;;;;;;15.18;10.93;;;20.40;85.00;;;;;;5032883;28;20051;-80
2021/08/16 00:10:06;;;;;;;13.35;10.77;;;20.40;85.50;;;;;;5034729;28;20100;-82
2021/08/16 00:12:32;;;;;;;19.90;11.53;;;20.30;85.70;;;;;;5031550;28;20422;-79
2021/08/16 00:14:59;;;;;;;15.85;11.35;;;20.30;85.80;;;;;;5039082;28;20049;-79
2021/08/16 00:17:24;;;;;;;13.00;11.75;;;20.30;86.00;;;;;;5039572;28;20052;-81
2021/08/16 00:19:51;;;;;;;15.48;12.13;;;20.30;86.40;;;;;;5027802;28;20018;-82
2021/08/16 00:22:17;;;;;;;15.07;12.07;;;20.20;86.40;;;;;;5034551;28;20109;-80
2021/08/16 00:24:43;;;;;;;16.58;11.70;;;20.20;86.60;;;;;;5031714;28;20049;-82
2021/08/16 00:27:09;;;;;;;15.43;12.27;;;20.20;87.00;;;;;;5034303;28;20017;-80
2021/08/16 00:29:35;;;;;;;14.10;11.50;;;20.20;87.20;;;;;;5016381;28;20025;-80
2021/08/16 00:32:01;;;;;;;20.33;11.75;;;20.20;87.40;;;;;;5034417;28;20387;-80
2021/08/16 00:34:27;;;;;;;14.60;11.25;;;20.20;87.60;;;;;;5034116;28;20025;-80
2021/08/16 00:36:53;;;;;;;12.45;11.15;;;20.20;87.60;;;;;;5034432;28;20022;-82
2021/08/16 00:39:19;;;;;;;13.48;11.45;;;20.10;87.60;;;;;;5034401;28;20121;-81
2021/08/16 00:41:48;;;;;;;16.05;12.30;;;20.20;87.80;;;;;;5034035;28;20159;-80
2021/08/16 00:44:15;;;;;;;15.88;10.95;;;20.10;87.80;;;;;;5009072;28;20034;-81
2021/08/16 00:46:41;;;;;;;13.83;12.00;;;20.10;87.90;;;;;;5033901;28;20014;-81
2021/08/16 00:49:08;;;;;;;15.18;11.77;;;20.10;87.90;;;;;;5033978;28;20100;-79
2021/08/16 00:51:36;;;;;;;13.07;11.52;;;20.10;88.00;;;;;;5034056;28;20364;-79
2021/08/16 00:54:08;;;;;;;17.38;12.50;;;20.10;88.10;;;;;;5029832;28;20021;-80
2021/08/16 00:56:40;;;;;;;14.75;12.45;;;20.10;88.30;;;;;;5026089;28;20032;-79
2021/08/16 00:59:08;;;;;;;15.45;12.35;;;20.10;88.40;;;;;;5033816;28;20059;-79
2021/08/16 01:01:34;;;;;;;15.10;12.05;;;20.10;88.60;;;;;;5031669;28;20073;-80
2021/08/16 01:04:00;;;;;;;13.40;11.65;;;20.10;88.80;;;;;;5034237;28;20439;-80
2021/08/16 01:06:26;;;;;;;13.80;11.63;;;20.00;89.10;;;;;;5035052;28;20080;-78
2021/08/16 01:08:53;;;;;;;15.57;12.60;;;20.00;89.30;;;;;;5035542;28;20021;-79
2021/08/16 01:11:20;;;;;;;13.85;12.32;;;20.00;89.60;;;;;;5000757;28;20048;-79
2021/08/16 01:13:47;;;;;;;14.07;12.77;;;19.90;89.60;;;;;;5031598;28;20470;-80
2021/08/16 01:16:15;;;;;;;15.27;12.40;;;19.90;90.00;;;;;;5031932;28;20080;-79
2021/08/16 01:18:42;;;;;;;15.73;12.10;;;19.80;90.10;;;;;;5033619;28;20029;-80
2021/08/16 01:21:14;;;;;;;14.52;11.25;;;19.80;90.40;;;;;;5033378;28;20025;-80
2021/08/16 01:23:41;;;;;;;15.45;13.38;;;19.70;90.50;;;;;;5031605;28;20022;-79
2021/08/16 01:26:07;;;;;;;14.40;11.88;;;19.80;90.60;;;;;;5033354;28;20076;-79
2021/08/16 01:28:33;;;;;;;15.93;11.68;;;19.70;90.50;;;;;;5033994;28;20078;-79
2021/08/16 01:31:02;;;;;;;14.23;12.43;;;19.80;90.60;;;;;;5033275;28;20104;-79
2021/08/16 01:33:28;;;;;;;13.63;12.23;;;19.70;90.50;;;;;;5032855;28;20470;-80
2021/08/16 01:35:55;;;;;;;14.43;12.67;;;19.70;90.60;;;;;;5032160;28;20420;-79
2021/08/16 01:38:25;;;;;;;14.95;12.70;;;19.70;90.60;;;;;;5032909;28;20259;-79
2021/08/16 01:40:50;;;;;;;15.88;12.18;;;19.70;90.70;;;;;;5032286;28;20391;-79
2021/08/16 01:43:17;;;;;;;18.10;11.68;;;19.70;90.70;;;;;;5032758;28;20025;-80
2021/08/16 01:45:43;;;;;;;17.70;11.82;;;19.60;90.80;;;;;;5014699;28;20068;-80
2021/08/16 01:48:08;;;;;;;14.23;12.25;;;19.60;90.90;;;;;;5032954;28;20045;-79
2021/08/16 01:50:34;;;;;;;12.60;11.30;;;19.60;91.00;;;;;;5033307;28;20033;-79
2021/08/16 01:53:00;;;;;;;13.90;12.40;;;19.60;91.10;;;;;;5032514;28;20017;-80
2021/08/16 01:55:26;;;;;;;16.75;12.23;;;19.60;91.10;;;;;;5032788;28;20402;-79
2021/08/16 01:57:52;;;;;;;17.25;13.05;;;19.60;91.20;;;;;;5032745;28;20025;-78
2021/08/16 02:00:18;;;;;;;13.80;11.98;;;19.60;91.30;;;;;;5033164;28;20030;-83
2021/08/16 02:02:44;;;;;;;15.00;12.93;;;19.60;91.30;;;;;;5033083;28;20049;-79
2021/08/16 02:05:10;;;;;;;14.48;12.70;;;19.50;91.50;;;;;;5040145;28;20018;-78
2021/08/16 02:07:36;;;;;;;16.88;13.60;;;19.50;91.60;;;;;;5042994;28;20032;-80
2021/08/16 02:10:03;;;;;;;17.38;12.90;;;19.50;91.70;;;;;;5032383;28;20120;-79
2021/08/16 02:12:29;;;;;;;16.50;12.88;;;19.50;91.70;;;;;;5032752;28;20030;-78
2021/08/16 02:14:55;;;;;;;14.43;12.77;;;19.50;91.80;;;;;;5032084;28;20067;-80
2021/08/16 02:17:21;;;;;;;17.60;13.60;;;19.50;91.90;;;;;;5032491;28;20025;-79
2021/08/16 02:19:47;;;;;;;18.25;13.48;;;19.50;91.90;;;;;;5032652;28;20029;-79
2021/08/16 02:22:15;;;;;;;16.77;14.00;;;19.50;91.80;;;;;;5032244;28;20022;-80
2021/08/16 02:24:40;;;;;;;17.70;14.73;;;19.50;92.20;;;;;;5032396;28;20021;-79
2021/08/16 02:27:06;;;;;;;15.77;14.00;;;19.50;91.90;;;;;;5032335;28;20351;-80
2021/08/16 02:29:34;;;;;;;16.65;13.52;;;19.50;91.90;;;;;;5032269;28;20095;-80
2021/08/16 02:32:00;;;;;;;16.60;13.82;;;19.50;91.90;;;;;;5032148;28;20028;-80
2021/08/16 02:34:26;;;;;;;15.38;13.65;;;19.50;91.80;;;;;;5032436;28;20017;-80
2021/08/16 02:36:52;;;;;;;16.55;13.70;;;19.50;91.80;;;;;;5032337;28;20033;-80
2021/08/16 02:39:18;;;;;;;17.63;13.85;;;19.50;91.80;;;;;;5030653;28;20033;-80
2021/08/16 02:41:44;;;;;;;21.23;14.18;;;19.50;91.90;;;;;;5032474;28;20025;-79
2021/08/16 02:44:10;;;;;;;18.17;14.00;;;19.60;92.00;;;;;;5026655;28;20360;-79
2021/08/16 02:46:36;;;;;;;17.55;13.07;;;19.60;91.90;;;;;;5031951;28;20037;-80
2021/08/16 02:49:02;;;;;;;17.15;14.43;;;19.70;92.00;;;;;;5026608;28;20025;-82
2021/08/16 02:51:28;;;;;;;14.80;13.30;;;19.80;91.80;;;;;;5018015;28;20079;-80
2021/08/16 02:53:55;;;;;;;18.98;14.25;;;19.80;92.00;;;;;;5032041;28;20077;-79
2021/08/16 02:56:21;;;;;;;15.38;13.27;;;19.80;91.60;;;;;;5024728;28;20032;-79
2021/08/16 02:58:47;;;;;;;19.10;13.45;;;19.80;91.50;;;;;;5032239;28;20029;-78
2021/08/16 03:01:13;;;;;;;19.30;14.30;;;19.90;91.50;;;;;;5031983;28;20513;-79
2021/08/16 03:03:39;;;;;;;20.13;14.80;;;19.90;91.50;;;;;;5031951;28;20053;-80
2021/08/16 03:06:04;;;;;;;17.40;13.95;;;19.90;91.40;;;;;;5032195;28;20378;-80
2021/08/16 03:08:34;;;;;;;22.67;14.48;;;19.90;91.30;;;;;;5014599;28;20083;-81
2021/08/16 03:11:01;;;;;;;22.33;14.30;;;19.90;91.30;;;;;;5032854;28;20033;-81
2021/08/16 03:13:27;;;;;;;14.77;13.07;;;20.00;91.30;;;;;;5014677;28;20018;-78
2021/08/16 03:15:53;;;;;;;20.33;14.70;;;20.10;91.10;;;;;;5021690;28;20600;-80
2021/08/16 03:18:19;;;;;;;19.10;12.93;;;20.10;91.00;;;;;;5007823;28;20041;-79
2021/08/16 03:20:44;;;;;;;18.35;14.18;;;20.20;90.70;;;;;;5032186;28;20036;-79
2021/08/16 03:23:10;;;;;;;16.88;12.68;;;20.20;90.60;;;;;;5032112;28;20021;-79
2021/08/16 03:25:36;;;;;;;15.82;13.48;;;20.20;90.60;;;;;;5033488;28;20083;-79
2021/08/16 03:28:03;;;;;;;14.63;12.60;;;20.40;90.50;;;;;;5036272;28;20075;-81
2021/08/16 03:30:29;;;;;;;20.52;13.20;;;20.50;90.10;;;;;;5036414;28;20449;-80
2021/08/16 03:32:55;;;;;;;14.05;12.65;;;20.60;89.80;;;;;;5036994;28;20051;-79
2021/08/16 03:35:20;;;;;;;15.80;12.80;;;20.70;89.40;;;;;;5035715;28;20049;-79
2021/08/16 03:37:46;;;;;;;14.77;12.50;;;20.80;89.00;;;;;;5030446;28;20010;-79
2021/08/16 03:40:13;;;;;;;16.55;13.07;;;20.90;88.70;;;;;;5030902;28;20032;-80
2021/08/16 03:42:40;;;;;;;14.13;12.57;;;20.90;88.10;;;;;;5035645;28;20064;-81
2021/08/16 03:45:19;;;;;;;16.15;12.02;;;21.00;87.80;;;;;;5036117;28;20026;-79
2021/08/16 03:47:46;;;;;;;17.38;13.18;;;21.10;87.60;;;;;;5035635;28;20021;-80
2021/08/16 03:50:12;;;;;;;14.68;13.10;;;21.20;87.20;;;;;;5035620;28;20034;-79
2021/08/16 03:52:38;;;;;;;13.52;12.18;;;21.20;87.20;;;;;;5035481;28;20110;-79
2021/08/16 03:55:05;;;;;;;16.70;12.10;;;21.10;87.00;;;;;;5035868;28;20014;-80
2021/08/16 03:57:30;;;;;;;17.42;13.23;;;21.10;87.10;;;;;;5035694;28;20033;-80
2021/08/16 03:59:56;;;;;;;17.33;12.60;;;21.10;87.40;;;;;;5035500;28;20017;-80
2021/08/16 04:02:22;;;;;;;19.08;13.02;;;21.20;87.30;;;;;;5035737;28;20061;-78
2021/08/16 04:04:48;;;;;;;16.33;12.50;;;21.30;86.80;;;;;;5035340;28;20104;-78
2021/08/16 04:07:17;;;;;;;15.45;11.77;;;21.40;86.30;;;;;;5035294;28;20061;-79
2021/08/16 04:09:42;;;;;;;17.45;12.88;;;21.50;86.10;;;;;;5034005;28;20029;-79
2021/08/16 04:12:09;;;;;;;18.73;13.05;;;21.50;85.80;;;;;;5033065;28;20083;-80
2021/08/16 04:14:35;;;;;;;15.80;12.55;;;21.50;85.70;;;;;;5034980;28;20021;-79
2021/08/16 04:17:01;;;;;;;21.75;13.32;;;21.60;85.90;;;;;;5035725;28;20556;-81
2021/08/16 04:19:26;;;;;;;14.07;12.15;;;21.60;85.70;;;;;;5035051;28;20470;-80
2021/08/16 04:21:52;;;;;;;14.52;11.77;;;21.70;85.70;;;;;;5035700;28;20502;-81
2021/08/16 04:24:18;;;;;;;12.77;11.48;;;21.70;85.20;;;;;;5035580;28;20017;-81
2021/08/16 04:26:44;;;;;;;13.52;11.27;;;21.70;84.90;;;;;;5041229;28;20077;-79
2021/08/16 04:29:13;;;;;;;13.13;11.38;;;21.70;84.80;;;;;;5044213;28;20049;-80
2021/08/16 04:31:39;;;;;;;16.83;11.30;;;21.90;84.20;;;;;;5034914;28;20036;-81
2021/08/16 04:34:05;;;;;;;15.65;10.40;;;21.90;83.80;;;;;;5035162;28;20057;-81
2021/08/16 04:36:31;;;;;;;13.95;10.63;;;22.10;83.00;;;;;;5009898;28;20030;-80
2021/08/16 04:38:57;;;;;;;13.98;9.80;;;22.20;82.40;;;;;;5033764;28;20026;-81
2021/08/16 04:41:23;;;;;;;11.52;10.32;;;22.30;82.30;;;;;;5035150;28;20085;-81
2021/08/16 04:43:49;;;;;;;14.60;10.70;;;22.40;82.30;;;;;;5034669;28;20107;-80
2021/08/16 04:46:15;;;;;;;11.93;10.38;;;22.60;81.30;;;;;;5034620;28;20384;-82
2021/08/16 04:48:41;;;;;;;17.35;10.52;;;23.00;80.40;;;;;;5017136;28;20111;-81
2021/08/16 04:51:07;;;;;;;14.20;10.18;;;23.50;78.10;;;;;;5034732;28;20124;-81
2021/08/16 04:53:32;;;;;;;16.15;10.90;;;24.00;75.90;;;;;;5034714;28;20028;-81
2021/08/16 04:55:58;;;;;;;11.27;9.88;;;24.20;74.70;;;;;;5039855;28;20030;-82
2021/08/16 04:58:24;;;;;;;16.98;11.35;;;24.30;73.80;;;;;;5040750;28;20417;-81
2021/08/16 05:00:50;;;;;;;14.35;10.07;;;24.30;74.00;;;;;;5017097;28;20025;-83
2021/08/16 05:03:16;;;;;;;11.43;10.27;;;24.40;73.60;;;;;;5034950;28;20080;-80
2021/08/16 05:05:48;;;;;;;12.25;10.25;;;24.50;73.00;;;;;;5034873;28;20040;-82
2021/08/16 05:08:14;;;;;;;14.90;10.13;;;24.90;71.90;;;;;;5035194;28;20013;-81
2021/08/16 05:10:41;;;;;;;15.93;10.23;;;25.30;71.00;;;;;;5029363;28;20033;-79
2021/08/16 05:13:07;;;;;;;12.52;10.15;;;25.60;69.50;;;;;;5016669;28;20061;-83
2021/08/16 05:15:33;;;;;;;14.15;10.90;;;26.00;68.40;;;;;;5034536;28;20089;-81
2021/08/16 05:18:02;;;;;;;10.60;9.38;;;26.20;67.70;;;;;;5035430;28;20025;-81
2021/08/16 05:20:28;;;;;;;14.50;11.20;;;26.30;66.80;;;;;;5046171;28;20025;-82
2021/08/16 05:22:54;;;;;;;14.13;8.80;;;26.70;65.80;;;;;;5041093;28;20381;-81
2021/08/16 05:25:20;;;;;;;11.20;9.95;;;27.30;63.20;;;;;;5033354;28;20036;-82
2021/08/16 05:27:47;;;;;;;15.97;9.67;;;27.50;62.70;;;;;;5033767;28;20017;-80
2021/08/16 05:30:13;;;;;;;17.30;9.60;;;27.90;60.90;;;;;;5033412;28;20025;-81
2021/08/16 05:32:39;;;;;;;15.95;10.20;;;28.20;61.30;;;;;;5015396;28;20029;-83
2021/08/16 05:35:07;;;;;;;16.67;9.43;;;28.80;59.80;;;;;;5011918;28;20359;-83
2021/08/16 05:37:33;;;;;;;14.68;9.60;;;29.50;57.50;;;;;;5034002;28;20383;-84
2021/08/16 05:39:59;;;;;;;11.82;9.57;;;29.90;56.20;;;;;;5035154;28;20100;-84
2021/08/16 05:42:25;;;;;;;21.92;10.55;;;;;;;;;;5016001;28;20521;-82
2021/08/16 05:44:51;;;;;;;10.93;9.40;;;30.10;54.90;;;;;;5034346;28;20107;-83
2021/08/16 05:47:16;;;;;;;11.57;8.75;;;31.20;53.70;;;;;;5033930;28;20053;-83
2021/08/16 05:49:42;;;;;;;11.80;9.13;;;31.70;52.50;;;;;;5032752;28;20034;-82
2021/08/16 05:52:08;;;;;;;10.87;9.30;;;32.70;50.50;;;;;;5033466;28;20087;-83
2021/08/16 05:54:34;;;;;;;12.07;9.53;;;33.50;49.00;;;;;;5017686;28;20501;-82
2021/08/16 05:57:00;;;;;;;11.97;9.50;;;34.30;46.80;;;;;;5017072;28;20037;-82
2021/08/16 05:59:26;;;;;;;13.40;8.27;;;;;;;;;;5033196;28;20025;-81
2021/08/16 06:01:52;;;;;;;11.55;7.63;;;35.10;46.20;;;;;;5033633;28;20037;-81
2021/08/16 06:04:18;;;;;;;10.20;8.33;;;36.50;42.40;;;;;;5033546;28;20075;-81
2021/08/16 06:06:44;;;;;;;13.63;8.63;;;36.90;42.50;;;;;;5033589;28;20021;-81
2021/08/16 06:09:10;;;;;;;11.00;7.40;;;;;;;;;;5033647;28;20022;-82
2021/08/16 06:11:36;;;;;;;12.23;8.48;;;36.90;41.70;;;;;;5033475;28;20663;-84
2021/08/16 06:14:02;;;;;;;12.88;7.88;;;36.90;40.30;;;;;;5034845;28;20017;-82
2021/08/16 06:16:28;;;;;;;12.23;8.15;;;37.30;39.80;;;;;;5016233;28;20045;-85
2021/08/16 06:18:54;;;;;;;8.30;6.90;;;38.10;39.20;;;;;;5034000;28;20025;-85
2021/08/16 06:21:20;;;;;;;10.95;7.57;;;38.80;38.40;;;;;;5019015;28;20164;-84
2021/08/16 06:23:47;;;;;;;15.23;7.47;;;39.00;37.60;;;;;;5035293;28;20029;-83
2021/08/16 06:26:13;;;;;;;10.18;7.03;;;38.50;37.60;;;;;;5007287;28;20105;-82
2021/08/16 06:28:39;;;;;;;10.55;7.57;;;37.60;38.30;;;;;;5038020;28;20021;-84
2021/08/16 06:31:07;;;;;;;9.32;6.90;;;37.70;38.90;;;;;;5032457;28;20042;-84
2021/08/16 06:33:37;;;;;;;7.47;6.55;;;37.70;38.80;;;;;;5027002;28;20025;-86
2021/08/16 06:36:05;;;;;;;11.45;6.85;;;38.10;38.20;;;;;;5024234;28;20026;-87
2021/08/16 06:38:31;;;;;;;8.27;6.15;;;38.60;37.50;;;;;;5028068;28;20022;-85
2021/08/16 06:40:59;;;;;;;8.75;6.55;;;39.00;36.20;;;;;;5034323;28;20053;-85
2021/08/16 06:43:27;;;;;;;8.90;5.78;;;38.60;36.00;;;;;;5019359;28;20033;-85
2021/08/16 06:45:53;;;;;;;12.32;6.03;;;38.20;35.70;;;;;;5040792;28;20030;-84
2021/08/16 06:48:20;;;;;;;7.28;5.68;;;37.90;36.40;;;;;;5045591;28;20025;-83
2021/08/16 06:50:46;;;;;;;9.98;6.28;;;38.00;36.10;;;;;;5018406;28;20037;-86
2021/08/16 06:53:14;;;;;;;7.30;5.65;;;38.10;36.10;;;;;;5023577;28;20478;-85
2021/08/16 06:55:45;;;;;;;9.70;6.40;;;38.40;35.30;;;;;;5035622;28;20100;-85
2021/08/16 06:58:10;;;;;;;8.18;5.95;;;38.40;35.60;;;;;;5036680;28;20037;-86
2021/08/16 07:00:43;;;;;;;11.48;5.68;;;38.30;35.60;;;;;;5039097;28;20419;-87
2021/08/16 07:03:10;;;;;;;16.52;7.03;;;39.00;35.40;;;;;;5039978;28;20101;-86
2021/08/16 07:05:39;;;;;;;10.40;6.30;;;39.20;35.00;;;;;;5039602;28;20018;-85
2021/08/16 07:08:05;;;;;;;6.93;5.72;;;39.10;33.90;;;;;;5039321;28;20030;-88
2021/08/16 07:10:31;;;;;;;8.57;5.78;;;39.00;34.60;;;;;;5039788;28;20040;-85
2021/08/16 07:12:58;;;;;;;14.23;6.28;;;38.80;34.70;;;;;;5039051;28;20103;-84
2021/08/16 07:15:24;;;;;;;6.40;5.15;;;38.50;34.90;;;;;;5039110;28;20056;-88
2021/08/16 07:17:51;;;;;;;7.90;5.72;;;39.10;34.90;;;;;;5038903;28;20017;-86
2021/08/16 07:20:17;;;;;;;10.88;5.43;;;39.70;33.70;;;;;;5038196;28;20030;-85
2021/08/16 07:22:43;;;;;;;9.10;5.47;;;38.60;33.90;;;;;;5039067;28;20022;-85
2021/08/16 07:25:09;;;;;;;10.38;6.28;;;39.00;34.40;;;;;;5040275;28;20033;-84
2021/08/16 07:27:35;;;;;;;12.70;5.72;;;40.40;33.40;;;;;;5041823;28;20021;-84
2021/08/16 07:30:01;;;;;;;8.55;4.65;;;40.10;32.60;;;;;;5040497;28;20113;-85
2021/08/16 07:32:29;;;;;;;8.73;4.90;;;40.80;31.30;;;;;;5037983;28;20029;-85
2021/08/16 07:34:55;;;;;;;7.82;4.47;;;41.20;30.80;;;;;;5038309;28;20017;-85
2021/08/16 07:37:20;;;;;;;;;;;42.00;29.90;;;;;;5038517;28;20021;-86
2021/08/16 07:39:46;;;;;;;9.27;5.05;;;42.50;31.60;;;;;;5038330;28;20381;-87
2021/08/16 07:42:12;;;;;;;5.00;4.50;;;41.40;30.40;;;;;;5037780;28;20085;-86
2021/08/16 07:44:38;;;;;;;;;;;40.90;30.50;;;;;;5039254;28;20034;-85
2021/08/16 07:47:05;;;;;;;7.22;5.28;;;41.40;31.70;;;;;;5009744;28;20286;-87
2021/08/16 07:49:31;;;;;;;6.47;4.50;;;41.70;30.30;;;;;;5036216;28;20387;-85
2021/08/16 07:51:58;;;;;;;8.98;5.80;;;41.80;30.00;;;;;;5009853;28;20034;-85
2021/08/16 07:54:24;;;;;;;7.53;4.20;;;40.60;30.50;;;;;;5034811;28;20087;-85
2021/08/16 07:56:50;;;;;;;;;;;40.90;30.70;;;;;;5039781;28;20386;-86
2021/08/16 07:59:19;;;;;;;6.72;4.88;;;41.30;31.40;;;;;;5037376;28;19905;-86
2021/08/16 08:01:45;;;;;;;11.45;4.82;;;41.30;30.50;;;;;;5032794;28;20024;-86
2021/08/16 08:04:12;;;;;;;9.68;5.43;;;42.00;30.50;;;;;;5039811;28;20029;-86
2021/08/16 08:06:38;;;;;;;5.97;4.07;;;42.00;29.90;;;;;;5036834;28;20028;-85
2021/08/16 08:09:05;;;;;;;8.60;4.47;;;40.70;30.00;;;;;;5040726;28;20027;-85
2021/08/16 08:11:32;;;;;;;6.18;4.45;;;39.80;32.10;;;;;;5036806;28;20406;-87
2021/08/16 08:13:58;;;;;;;11.73;5.45;;;40.00;32.20;;;;;;5037859;28;20040;-86
2021/08/16 08:16:24;;;;;;;;;;;40.70;31.70;;;;;;5036124;28;20546;-86
2021/08/16 08:18:50;;;;;;;13.27;5.80;;;41.00;31.80;;;;;;5018092;28;19905;-84
2021/08/16 08:21:16;;;;;;;7.47;5.47;;;40.80;31.00;;;;;;5037143;28;20102;-86
2021/08/16 08:23:42;;;;;;;6.60;4.45;;;41.10;30.60;;;;;;5035825;28;20021;-84
2021/08/16 08:26:08;;;;;;;;;;;40.20;31.30;;;;;;5036745;28;20033;-86
2021/08/16 08:28:34;;;;;;;10.88;4.65;;;40.50;32.40;;;;;;5035431;28;19992;-85
2021/08/16 08:31:00;;;;;;;8.65;4.38;;;39.60;31.90;;;;;;5028169;28;20057;-85
2021/08/16 08:33:25;;;;;;;11.15;4.55;;;39.50;32.20;;;;;;5030951;28;20105;-85
2021/08/16 08:35:52;;;;;;;8.60;5.03;;;39.80;32.20;;;;;;5035343;28;20032;-85
2021/08/16 08:38:18;;;;;;;8.65;5.85;;;39.00;33.00;;;;;;5035373;28;20042;-86
2021/08/16 08:40:45;;;;;;;8.25;5.38;;;39.70;32.40;;;;;;5035746;28;20025;-85
2021/08/16 08:43:14;;;;;;;11.95;4.78;;;39.30;32.50;;;;;;5035096;28;20025;-86
2021/08/16 08:45:42;;;;;;;6.07;4.57;;;38.70;32.50;;;;;;5036272;28;20021;-85
2021/08/16 08:48:08;;;;;;;9.93;5.65;;;37.30;33.50;;;;;;5036200;28;20013;-85
2021/08/16 08:50:34;;;;;;;7.07;4.53;;;36.50;34.70;;;;;;5036875;28;20044;-85
2021/08/16 08:53:03;;;;;;;7.47;4.93;;;36.60;35.30;;;;;;5036783;28;20424;-86
2021/08/16 08:55:30;;;;;;;10.93;5.20;;;36.90;35.10;;;;;;5035894;28;20068;-86
2021/08/16 08:58:00;;;;;;;11.30;5.22;;;37.20;35.20;;;;;;5035083;28;20055;-86
2021/08/16 09:00:26;;;;;;;9.15;5.38;;;38.10;34.60;;;;;;5025688;28;20022;-87
2021/08/16 09:03:03;;;;;;;9.82;5.53;;;38.40;33.80;;;;;;5013347;28;20033;-85
2021/08/16 09:05:31;;;;;;;9.88;5.95;;;38.00;34.70;;;;;;5041202;28;20025;-84
2021/08/16 09:08:00;;;;;;;7.30;5.88;;;37.70;35.30;;;;;;5046817;28;20073;-82
2021/08/16 09:10:27;;;;;;;11.52;5.65;;;;;;;;;;5031362;28;20176;-85
2021/08/16 09:13:00;;;;;;;10.98;5.65;;;37.30;34.90;;;;;;5037650;28;20021;-86
2021/08/16 09:15:31;;;;;;;7.85;6.28;;;36.80;35.70;;;;;;5017623;28;20149;-85
2021/08/16 09:18:02;;;;;;;9.18;6.70;;;36.30;36.50;;;;;;5035981;28;20021;-85
2021/08/16 09:20:35;;;;;;;9.25;6.20;;;35.90;37.20;;;;;;5023831;28;20017;-86
2021/08/16 09:23:07;;;;;;;10.35;5.85;;;35.60;37.20;;;;;;5041628;28;20026;-86
2021/08/16 09:25:38;;;;;;;13.52;6.03;;;35.00;38.20;;;;;;5005285;28;20489;-86
2021/08/16 09:28:07;;;;;;;7.97;5.97;;;34.70;38.60;;;;;;5035594;28;20029;-85
2021/08/16 09:30:38;;;;;;;10.57;5.25;;;34.60;38.30;;;;;;5017593;28;20152;-85
2021/08/16 09:33:30;;;;;;;7.00;5.00;;;35.10;37.70;;;;;;5043323;28;20018;-84
2021/08/16 09:35:58;;;;;;;10.07;5.47;;;36.20;36.80;;;;;;5026300;28;20029;-85
2021/08/16 09:38:39;;;;;;;7.15;5.07;;;37.60;35.60;;;;;;5036421;28;20017;-85
2021/08/16 09:41:25;;;;;;;10.98;4.55;;;39.10;34.20;;;;;;5039032;28;20026;-85
2021/08/16 09:43:53;;;;;;;9.00;5.18;;;39.50;32.70;;;;;;4997098;28;20029;-86
2021/08/16 09:46:21;;;;;;;7.32;4.53;;;40.20;32.60;;;;;;5033959;28;20021;-86
2021/08/16 09:49:02;;;;;;;7.45;4.35;;;41.20;31.10;;;;;;5005469;28;20471;-84
2021/08/16 09:51:29;;;;;;;8.45;4.22;;;41.50;30.80;;;;;;5019562;28;20375;-84
2021/08/16 09:53:57;;;;;;;6.95;4.90;;;42.10;31.00;;;;;;5038018;28;20026;-86
2021/08/16 09:56:23;;;;;;;6.25;4.78;;;42.00;30.00;;;;;;5036010;28;20409;-85
2021/08/16 09:58:50;;;;;;;8.10;4.25;;;41.30;30.00;;;;;;5034513;28;20033;-87
2021/08/16 10:01:17;;;;;;;7.63;5.07;;;41.40;30.60;;;;;;5016579;28;20406;-85
2021/08/16 10:03:43;;;;;;;7.05;4.65;;;40.80;30.50;;;;;;5034531;28;20021;-85
2021/08/16 10:06:09;;;;;;;;;;;41.30;30.30;;;;;;5034500;28;20022;-86
2021/08/16 10:08:39;;;;;;;9.27;4.60;;;40.60;30.30;;;;;;5035010;28;19916;-86
2021/08/16 10:11:07;;;;;;;7.43;4.38;;;40.10;30.70;;;;;;5034454;28;20093;-87
2021/08/16 10:13:37;;;;;;;6.22;4.25;;;40.00;30.90;;;;;;5034286;28;20152;-85
2021/08/16 10:16:10;;;;;;;8.25;4.35;;;41.00;31.20;;;;;;5035339;28;20053;-83
2021/08/16 10:18:45;;;;;;;5.10;4.25;;;41.70;30.30;;;;;;5034775;28;20044;-84
2021/08/16 10:21:17;;;;;;;7.60;4.68;;;42.70;29.50;;;;;;5035479;28;20097;-86
2021/08/16 10:23:51;;;;;;;5.57;4.78;;;42.70;29.70;;;;;;5034072;28;20026;-86
2021/08/16 10:26:34;;;;;;;8.10;4.40;;;43.20;28.90;;;;;;5016105;28;20112;-86
2021/08/16 10:29:02;;;;;;;5.35;4.78;;;43.40;29.40;;;;;;5027740;28;20021;-85
2021/08/16 10:31:34;;;;;;;7.63;4.43;;;42.50;28.30;;;;;;5033557;28;20044;-85
2021/08/16 10:34:00;;;;;;;5.82;4.40;;;40.70;29.20;;;;;;5033358;28;20021;-86
2021/08/16 10:36:27;;;;;;;6.68;4.43;;;39.10;31.10;;;;;;5033805;28;20032;-85
2021/08/16 10:38:56;;;;;;;8.10;4.28;;;37.60;32.10;;;;;;5033374;28;20017;-85
2021/08/16 10:41:43;;;;;;;5.93;4.28;;;36.30;33.00;;;;;;5035059;28;20022;-84
2021/08/16 10:44:15;;;;;;;4.65;4.25;;;34.60;34.20;;;;;;5033865;28;20033;-85
2021/08/16 10:46:41;;;;;;;5.57;4.28;;;34.10;36.30;;;;;;5033675;28;20079;-85
2021/08/16 10:49:12;;;;;;;8.18;5.22;;;33.30;37.00;;;;;;5033557;28;20485;-84
2021/08/16 10:51:46;;;;;;;7.18;4.63;;;32.20;39.00;;;;;;5015695;28;20125;-83
2021/08/16 10:54:27;;;;;;;8.98;5.18;;;31.70;39.60;;;;;;5021388;28;20026;-84
2021/08/16 10:56:55;;;;;;;9.05;5.10;;;31.60;40.70;;;;;;5032821;28;20048;-86
2021/08/16 10:59:22;;;;;;;9.93;5.05;;;31.50;41.00;;;;;;5032746;28;20096;-84
2021/08/16 11:01:49;;;;;;;7.25;4.90;;;31.40;40.30;;;;;;5032972;28;20025;-84
2021/08/16 11:04:25;;;;;;;7.38;5.07;;;31.30;40.80;;;;;;5033595;28;20409;-84
2021/08/16 11:06:55;;;;;;;5.57;4.13;;;31.20;41.00;;;;;;5039628;28;20021;-84
2021/08/16 11:09:26;;;;;;;8.25;4.45;;;31.00;40.60;;;;;;5036289;28;20049;-85
2021/08/16 11:12:12;;;;;;;8.95;4.70;;;30.80;40.60;;;;;;5033470;28;20036;-84
2021/08/16 11:14:42;;;;;;;7.70;4.80;;;30.60;40.20;;;;;;5015285;28;20030;-85
2021/08/16 11:17:09;;;;;;;6.78;5.05;;;30.40;40.60;;;;;;5033170;28;20029;-83
2021/08/16 11:19:45;;;;;;;6.57;5.40;;;30.30;40.90;;;;;;5033542;28;20018;-85
2021/08/16 11:22:12;;;;;;;6.93;5.28;;;30.20;42.30;;;;;;5019797;28;20075;-86
2021/08/16 11:24:42;;;;;;;12.73;5.57;;;30.20;42.60;;;;;;5033009;28;20038;-85
2021/08/16 11:27:25;;;;;;;7.80;4.97;;;30.30;42.80;;;;;;5033275;28;20021;-83
2021/08/16 11:30:03;;;;;;;8.57;5.13;;;30.30;42.40;;;;;;5042368;28;20021;-83
2021/08/16 11:32:30;;;;;;;7.80;5.18;;;30.30;42.20;;;;;;5036767;28;20037;-84
2021/08/16 11:34:57;;;;;;;10.88;4.90;;;30.40;41.70;;;;;;5039590;28;20079;-85
2021/08/16 11:37:41;;;;;;;7.05;4.70;;;30.00;43.00;;;;;;5033399;28;20025;-85
2021/08/16 11:40:07;;;;;;;8.65;5.28;;;30.10;43.60;;;;;;5039254;28;20369;-85
2021/08/16 11:42:33;;;;;;;9.20;4.97;;;30.00;42.30;;;;;;5036963;28;20099;-84
2021/08/16 11:45:11;;;;;;;6.20;5.05;;;29.70;43.30;;;;;;5034145;28;20026;-86
2021/08/16 11:47:43;;;;;;;7.57;4.75;;;29.50;43.50;;;;;;5038482;28;20029;-84
2021/08/16 11:50:11;;;;;;;6.72;5.03;;;29.60;44.00;;;;;;5038286;28;20014;-85
2021/08/16 11:52:37;;;;;;;6.18;4.70;;;29.60;43.90;;;;;;5035973;28;20037;-86
2021/08/16 11:55:07;;;;;;;7.10;4.63;;;29.50;43.60;;;;;;5036360;28;20029;-84
2021/08/16 11:57:34;;;;;;;6.35;4.68;;;29.50;43.80;;;;;;5036636;28;20025;-86
2021/08/16 12:00:00;;;;;;;7.22;5.00;;;29.30;44.30;;;;;;5018156;28;20017;-86
2021/08/16 12:02:30;;;;;;;8.77;5.03;;;29.20;43.80;;;;;;5036154;28;20041;-84
2021/08/16 12:04:58;;;;;;;12.32;5.85;;;29.20;44.50;;;;;;5035915;28;20534;-86
2021/08/16 12:07:29;;;;;;;5.88;5.10;;;29.30;44.70;;;;;;5036492;28;20017;-85
2021/08/16 12:09:56;;;;;;;6.57;5.55;;;29.60;44.60;;;;;;5035591;28;20021;-87
2021/08/16 12:12:26;;;;;;;;;;;29.80;43.60;;;;;;5037390;28;20033;-84
2021/08/16 12:15:03;;;;;;;8.00;4.95;;;29.80;43.50;;;;;;5036008;28;19943;-87
2021/08/16 12:17:30;;;;;;;10.90;5.65;;;29.70;42.80;;;;;;5036723;28;20028;-86
2021/08/16 12:20:04;;;;;;;8.05;5.00;;;29.70;43.20;;;;;;5036610;28;20017;-86
2021/08/16 12:22:31;;;;;;;7.65;4.88;;;29.70;44.50;;;;;;5035883;28;20059;-86
2021/08/16 12:25:08;;;;;;;12.77;5.57;;;29.70;44.00;;;;;;5034487;28;20479;-88
2021/08/16 12:27:34;;;;;;;8.35;5.22;;;29.70;44.00;;;;;;5036326;28;20029;-86
2021/08/16 12:30:01;;;;;;;9.40;5.07;;;29.80;45.00;;;;;;5036141;28;20025;-87
2021/08/16 12:32:30;;;;;;;9.27;5.60;;;29.80;44.30;;;;;;5029301;28;20034;-86
2021/08/16 12:34:58;;;;;;;5.68;4.55;;;29.80;43.90;;;;;;5030623;28;20021;-86
2021/08/16 12:37:30;;;;;;;6.43;5.22;;;29.80;44.60;;;;;;5036757;28;20401;-87
2021/08/16 12:40:25;;;;;;;6.97;5.53;;;29.70;44.30;;;;;;5043090;28;20056;-84
2021/08/16 12:42:59;;;;;;;8.50;5.15;;;29.50;44.00;;;;;;5009289;28;20029;-87